Auburn, California
Current Conditions -  °F | °C
As of 3:35 PM on Saturday 20 Dec 2014 (Local Time) from KAUN Reporting Station
Overcast Overcast  
Wind Chill: 52°   Ceiling: 5500
Heat Index: 52°   Visibility: 9mi
Dew Point: 52°   Wind: 6mph
Humidity: 100%   Direction: 140°SE
Pressure: 30.21"   Gusts: NA
Location:  38.9°N, 121.07°W
Report Text: KAUN 202335Z AUTO 14005KT 9SM FEW010 SCT048 OVC055 11/11 A3021 RMK AO1
Loading
Personal Weather Stations






























Interactive Weather Map New forecast layout! Learn more

10-Day Weather Forecast

Advertisements
Track Severe Weather on mobile